Latest Weather Observations for Mount Hotham

IDV60801

Issued at 9:32 am EST Monday 19 August 2019 (issued every 10 minutes, with the page automatically refreshed every 10 minutes)

About weather observations | Map of weather stations | Latest weather observations for VIC | Other Formats
Station Details ID: 083085 Name: MOUNT HOTHAM Lat: -36.98 Lon: 147.13 Height: 1849.0 m
Data from the previous 72 hours. | See also: Recent months at Mount Hotham
Date/Time
EST
Temp
°C
App
Temp
°C
Dew
Point
°C
Rel
Hum
%
Delta-T
°C
Wind Press
QNH
hPa
Press
MSL
hPa
Rain since
9am
mm
Dir  Spd
km/h
Gust
km/h
Spd
kts
Gust
kts
19/09:30am -6.0 -8.8 -6.5 96 -0.1 CALM 0 2 0 1 - - -
19/09:00am -6.0 -8.8 -6.5 96 -0.1 CALM 0 2 0 1 - - -
19/08:30am -6.0 -8.8 -6.5 96 -0.1 CALM 0 2 0 1 - - -
19/08:00am -6.2 -9.0 -6.7 96 -0.1 CALM 0 2 0 1 - - -
19/07:30am -6.3 -9.1 -6.8 96 -0.1 CALM 0 2 0 1 - - -
19/07:00am -5.9 -8.6 -6.4 96 -0.1 CALM 0 2 0 1 - - -
19/06:30am -5.8 -8.5 -6.3 96 -0.1 CALM 0 2 0 1 - - -
19/06:00am -5.7 -8.4 -6.2 96 -0.1 CALM 0 2 0 1 - - -
19/05:30am -5.9 -8.6 -6.4 96 -0.1 CALM 0 2 0 1 - - -
19/05:00am -5.7 -8.4 -6.2 96 -0.1 CALM 0 2 0 1 - - -
19/04:30am -5.4 -8.1 -5.9 96 -0.1 CALM 0 2 0 1 - - -
19/04:00am -5.4 -8.1 -5.9 96 -0.1 CALM 0 2 0 1 - - -
19/03:30am -5.4 -8.1 -5.9 96 -0.1 CALM 0 2 0 1 - - -
19/03:00am -5.4 -8.1 -5.9 96 -0.1 CALM 0 2 0 1 - - -
19/02:30am -5.1 -7.8 -5.5 97 -0.1 CALM 0 2 0 1 - - -
19/02:00am -4.7 -7.7 -5.1 97 -0.1 NW 2 2 1 1 - - -
19/01:30am -4.6 -7.2 -5.0 97 -0.1 CALM 0 2 0 1 - - -
19/01:00am -4.3 -9.3 -4.6 98 -0.1 WNW 13 20 7 11 - - -
19/12:30am -4.2 -9.6 -4.5 98 -0.1 NW 15 20 8 11 - - -
19/12:00am -4.0 -10.1 -4.3 98 -0.1 WNW 19 24 10 13 - - -
 
Date/Time
EST
Temp
°C
App
Temp
°C
Dew
Point
°C
Rel
Hum
%
Delta-T
°C
Wind Press
QNH
hPa
Press
MSL
hPa
Rain since
9am
mm
Dir  Spd
km/h
Gust
km/h
Spd
kts
Gust
kts
18/11:30pm -3.8 -10.9 -4.1 98 -0.1 NW 24 37 13 20 - - -
18/11:10pm -3.8 -12.6 -4.1 98 -0.1 NW 33 52 18 28 - - -
18/11:00pm -3.8 -13.3 -4.1 98 -0.1 NW 37 52 20 28 - - -
18/10:30pm -3.7 -14.6 -4.0 98 -0.1 WNW 44 72 24 39 - - -
18/10:00pm -3.5 -15.1 -3.8 98 -0.1 NW 48 72 26 39 - - -
18/09:30pm -3.3 -13.5 -3.6 98 0.0 NW 41 61 22 33 - - -
18/09:00pm -3.1 -13.7 -3.2 99 -0.1 NW 43 63 23 34 - - -
18/08:30pm -3.0 -12.0 -3.1 99 -0.1 NW 35 59 19 32 - - -
18/08:02pm -2.8 -13.3 -2.9 99 -0.1 NW 43 61 23 33 - - -
18/08:00pm -2.8 -13.5 -2.9 99 -0.1 NW 44 61 24 33 - - -
18/07:30pm -2.0 -13.4 -2.1 99 -0.1 NW 48 70 26 38 - - -
18/07:00pm -1.1 -12.0 -1.2 99 0.0 NNW 46 70 25 38 - - -
18/06:30pm 0.0 -9.0 -0.1 99 0.0 NW 37 57 20 31 - - -
18/06:07pm 0.1 -11.0 0.0 99 0.0 NW 48 67 26 36 - - -
18/06:00pm 0.1 -10.6 0.0 99 0.0 NNW 46 69 25 37 - - -
18/05:30pm 1.5 -11.7 0.2 91 0.5 N 59 85 32 46 - - -
18/05:00pm 2.4 -10.6 -1.0 78 1.4 N 57 83 31 45 - - -
18/04:30pm 2.6 -10.4 -1.2 76 1.6 N 57 80 31 43 - - -
18/04:00pm 2.4 -10.4 -1.6 75 1.6 N 56 80 30 43 - - -
18/03:30pm 2.7 -11.1 -2.0 71 1.9 N 61 80 33 43 - - -
18/03:12pm 2.4 -10.1 -1.7 74 1.6 N 54 76 29 41 - - -
18/03:00pm 2.3 -9.8 -1.7 75 1.6 N 52 69 28 37 - - -
18/02:30pm 2.9 -10.3 -2.6 67 2.2 N 57 78 31 42 - - -
18/02:00pm 2.4 -10.6 -3.1 67 2.1 N 56 82 30 44 - - -
18/01:57pm 2.2 -9.7 -3.3 67 2.1 N 50 82 27 44 - - -
18/01:45pm 2.1 -9.0 -3.0 69 2.0 N 46 63 25 34 - - -
18/01:43pm 2.1 -9.0 -2.6 71 1.8 N 46 63 25 34 - - -
18/01:30pm 1.7 -12.3 -3.0 71 1.9 N 61 80 33 43 - - -
18/01:12pm 1.6 -11.5 -3.3 70 2.0 N 56 100 30 54 - - -
18/01:00pm 1.1 -11.1 -2.3 78 1.4 N 52 72 28 39 - - -
18/12:30pm 0.7 -9.9 -1.8 83 1.0 NNW 44 67 24 36 - - -
18/12:24pm 1.1 -9.3 -2.1 79 1.3 N 43 67 23 36 - - -
18/12:14pm 1.2 -11.0 -2.4 77 1.5 N 52 80 28 43 - - -
18/12:00pm 1.0 -13.3 -2.9 75 1.6 N 63 83 34 45 - - -
18/11:31am 0.6 -11.2 -2.4 80 1.2 N 50 76 27 41 - - -
18/11:30am 0.5 -11.3 -2.2 82 1.1 N 50 65 27 35 - - -
18/11:09am 0.7 -11.5 -2.5 79 1.3 N 52 70 28 38 - - -
18/11:00am 0.7 -12.3 -2.9 77 1.4 N 56 70 30 38 - - -
18/10:43am 0.9 -13.0 -2.8 76 1.5 N 61 82 33 44 - - -
18/10:30am 0.7 -14.0 -2.7 78 1.3 N 65 78 35 42 - - -
18/10:09am 0.6 -14.1 -2.8 78 1.3 N 65 83 35 45 - - -
18/10:00am 0.6 -14.5 -2.6 79 1.3 N 67 78 36 42 - - -
18/09:30am 0.2 -13.0 -2.8 80 1.2 N 57 76 31 41 - - -
18/09:06am 0.2 -12.1 -3.0 79 1.2 N 52 72 28 39 - - -
18/09:00am 0.2 -12.0 -2.8 80 1.2 N 52 67 28 36 - - -
18/08:30am 0.1 -11.3 -2.4 83 1.0 N 48 61 26 33 - - -
18/08:17am 0.1 -12.1 -2.3 84 0.9 N 52 70 28 38 - - -
18/08:00am -0.2 -11.6 -1.9 88 0.7 N 48 61 26 33 - - -
18/07:35am -0.2 -11.1 -1.3 92 0.4 N 46 65 25 35 - - -
18/07:30am -0.2 -11.9 -1.3 92 0.4 N 50 65 27 35 - - -
18/07:00am -0.2 -11.1 -1.0 94 0.3 N 46 61 25 33 - - -
18/06:30am -0.3 -11.9 -1.0 95 0.3 N 50 61 27 33 - - -
18/06:00am -0.9 -11.3 -1.7 94 0.3 N 43 50 23 27 - - -
18/05:30am -1.0 -11.0 -1.6 96 0.2 N 41 50 22 27 - - -
18/05:00am -1.0 -9.4 -1.1 99 0.0 N 33 39 18 21 - - -
18/04:30am -1.2 -11.6 -1.8 96 0.2 N 43 52 23 28 - - -
18/04:00am -1.3 -11.7 -1.7 97 0.1 N 43 56 23 30 - - -
18/03:48am -1.4 -11.8 -2.0 96 0.2 N 43 61 23 33 - - -
18/03:30am -1.3 -12.6 -1.6 98 0.0 N 48 59 26 32 - - -
18/03:00am -1.0 -12.6 -1.1 99 0.0 N 50 61 27 33 - - -
18/02:30am -0.6 -12.6 -0.7 99 0.0 NNW 52 72 28 39 - - -
18/02:19am -0.4 -13.1 -0.5 99 0.0 NNW 56 74 30 40 - - -
18/02:00am -0.4 -13.7 -0.5 99 0.0 NNW 59 76 32 41 - - -
18/01:33am -0.9 -14.2 -1.0 99 0.0 NNW 59 78 32 42 - - -
18/01:30am -0.9 -14.6 -1.0 99 0.0 NNW 61 78 33 42 - - -
18/01:00am -0.3 -13.0 -0.4 99 0.0 NNW 56 78 30 42 - - -
18/12:30am -0.3 -12.6 -0.4 99 0.0 N 54 74 29 40 - - -
18/12:00am 0.0 -12.3 -0.1 99 0.0 N 54 78 29 42 - - -
 
Date/Time
EST
Temp
°C
App
Temp
°C
Dew
Point
°C
Rel
Hum
%
Delta-T
°C
Wind Press
QNH
hPa
Press
MSL
hPa
Rain since
9am
mm
Dir  Spd
km/h
Gust
km/h
Spd
kts
Gust
kts
17/11:30pm -0.1 -12.8 -0.2 99 0.0 N 56 76 30 41 - - -
17/11:00pm -0.9 -13.3 -1.0 99 0.0 N 54 76 29 41 - - -
17/10:32pm -1.3 -12.7 -2.3 93 0.3 N 48 70 26 38 - - -
17/10:30pm -1.3 -12.7 -2.3 93 0.3 N 48 59 26 32 - - -
17/10:14pm -1.3 -13.1 -2.3 93 0.3 N 50 69 27 37 - - -
17/10:00pm -1.3 -13.1 -2.3 93 0.3 N 50 61 27 33 - - -
17/09:30pm -1.2 -12.6 -1.9 95 0.2 N 48 59 26 32 - - -
17/09:02pm -1.2 -13.7 -2.0 94 0.2 N 54 72 29 39 - - -
17/09:00pm -1.2 -14.3 -2.2 93 0.3 N 57 72 31 39 - - -
17/08:30pm -1.1 -14.2 -1.9 94 0.3 N 57 67 31 36 - - -
17/08:00pm -0.2 -11.0 -0.6 97 0.2 N 46 56 25 30 - - -
17/07:30pm 0.0 -9.8 -0.1 99 0.0 N 41 50 22 27 - - -
17/07:00pm 0.0 -8.1 -0.1 99 0.0 N 32 41 17 22 - - -
17/06:30pm 0.1 -7.2 0.0 99 0.0 N 28 35 15 19 - - -
17/06:00pm 0.1 -7.6 0.0 99 0.0 N 30 37 16 20 - - -
17/05:30pm 0.1 -8.9 0.0 99 0.0 N 37 44 20 24 - - -
17/05:00pm 0.1 -8.5 0.0 99 0.0 N 35 41 19 22 - - -
17/04:30pm 0.1 -6.1 0.0 99 0.0 NNW 22 30 12 16 - - -
17/04:00pm 0.1 -6.4 0.0 99 0.0 N 24 28 13 15 - - -
17/03:30pm 0.0 -5.8 -0.1 99 0.0 NNW 20 26 11 14 - - -
17/03:00pm 0.1 -5.7 0.0 99 0.0 NNW 20 26 11 14 - - -
17/02:30pm 0.0 -5.2 -0.1 99 0.0 NW 17 20 9 11 - - -
17/02:00pm 0.0 -4.1 -0.1 99 0.0 NW 11 19 6 10 - - -
17/01:30pm 0.0 -3.7 -0.1 99 0.0 NW 9 13 5 7 - - -
17/01:00pm 0.0 -2.8 -0.1 99 0.0 NW 4 7 2 4 - - -
17/12:30pm 0.0 -4.5 -0.1 99 0.0 NNE 13 15 7 8 - - -
17/12:00pm -0.1 -3.8 -0.2 99 0.0 NE 9 15 5 8 - - -
17/11:30am -0.2 -4.7 -0.3 99 0.0 ENE 13 24 7 13 - - -
17/11:00am -0.5 -5.4 -0.6 99 0.0 ENE 15 20 8 11 - - -
17/10:30am -0.8 -5.8 -0.9 99 0.0 ESE 15 24 8 13 - - -
17/10:00am -1.2 -6.6 -1.3 99 0.0 ESE 17 26 9 14 - - -
17/09:30am -1.6 -6.7 -1.7 99 0.0 ESE 15 20 8 11 - - -
17/09:00am -2.0 -7.5 -2.1 99 -0.1 ESE 17 28 9 15 - - -
17/08:30am -2.2 -9.4 -2.3 99 -0.1 ESE 26 39 14 21 - - -
17/08:00am -2.3 -10.3 -2.4 99 -0.1 SE 30 41 16 22 - - -
17/07:30am -2.3 -10.3 -2.4 99 -0.1 SE 30 39 16 21 - - -
17/07:00am -2.2 -10.6 -2.3 99 -0.1 SE 32 43 17 23 - - -
17/06:30am -2.1 -11.0 -2.2 99 -0.1 SE 35 46 19 25 - - -
17/06:00am -2.0 -11.7 -2.1 99 -0.1 SSE 39 48 21 26 - - -
17/05:35am -2.1 -11.8 -2.2 99 -0.1 SSE 39 57 21 31 - - -
17/05:30am -2.1 -12.2 -2.2 99 -0.1 SSE 41 56 22 30 - - -
17/05:01am -2.2 -11.9 -2.3 99 -0.1 SSE 39 57 21 31 - - -
17/05:00am -2.2 -12.3 -2.3 99 -0.1 SSE 41 57 22 31 - - -
17/04:30am -2.2 -12.9 -2.3 99 -0.1 SSE 44 57 24 31 - - -
17/04:00am -2.4 -12.9 -2.5 99 -0.1 SSE 43 52 23 28 - - -
17/03:30am -2.8 -12.2 -2.9 99 -0.1 SSE 37 46 20 25 - - -
17/03:00am -3.1 -13.3 -3.2 99 -0.1 SSE 41 50 22 27 - - -
17/02:30am -3.3 -13.5 -3.4 99 -0.1 SSE 41 52 22 28 - - -
17/02:00am -3.2 -13.0 -3.3 99 -0.1 SSE 39 44 21 24 - - -
17/01:30am -3.1 -11.8 -3.2 99 -0.1 SSE 33 41 18 22 - - -
17/01:00am -3.2 -13.4 -3.3 99 -0.1 SSE 41 46 22 25 - - -
17/12:30am -3.0 -12.8 -3.1 99 -0.1 S 39 54 21 29 - - -
17/12:00am -3.0 -12.8 -3.1 99 -0.1 S 39 50 21 27 - - -
 
Date/Time
EST
Temp
°C
App
Temp
°C
Dew
Point
°C
Rel
Hum
%
Delta-T
°C
Wind Press
QNH
hPa
Press
MSL
hPa
Rain since
9am
mm
Dir  Spd
km/h
Gust
km/h
Spd
kts
Gust
kts
16/11:30pm -2.8 -11.4 -2.9 99 -0.1 S 33 52 18 28 - - -
16/11:29pm -2.8 -11.4 -2.9 99 -0.1 S 33 52 18 28 - - -
16/11:00pm -2.7 -11.7 -2.8 99 -0.1 S 35 43 19 23 - - -
16/10:32pm -2.3 -10.7 -2.4 99 -0.1 S 32 50 17 27 - - -
16/10:30pm -2.3 -10.3 -2.4 99 -0.1 S 30 35 16 19 - - -
16/10:00pm -2.1 -9.7 -2.2 99 -0.1 S 28 37 15 20 - - -
16/09:30pm -1.9 -9.1 -2.0 99 -0.1 S 26 35 14 19 - - -
16/09:00pm -1.8 -8.2 -1.9 99 -0.1 SSW 22 30 12 16 - - -
16/08:30pm -1.7 -7.7 -1.8 99 0.0 SW 20 32 11 17 - - -
16/08:00pm -1.7 -7.5 -1.8 99 0.0 WSW 19 26 10 14 - - -
16/07:30pm -1.6 -7.0 -1.7 99 0.0 W 17 22 9 12 - - -
16/07:00pm -1.5 -7.9 -1.6 99 0.0 WNW 22 35 12 19 - - -
16/06:30pm -1.4 -8.2 -1.5 99 0.0 NW 24 33 13 18 - - -
16/06:00pm -1.3 -10.5 -1.4 99 0.0 NW 37 48 20 26 - - -
16/05:32pm -1.3 -11.6 -1.4 99 0.0 NNW 43 61 23 33 - - -
16/05:30pm -1.3 -11.8 -1.4 99 0.0 NNW 44 61 24 33 - - -
16/05:00pm -1.4 -12.3 -1.5 99 0.0 NNW 46 65 25 35 - - -
16/04:51pm -1.5 -11.9 -1.6 99 0.0 NNW 43 65 23 35 - - -
16/04:30pm -1.6 -12.0 -1.7 99 0.0 NNW 43 59 23 32 - - -
16/04:02pm -1.6 -12.6 -1.7 99 0.0 NNW 46 65 25 35 - - -
16/04:00pm -1.6 -12.9 -1.7 99 0.0 NNW 48 65 26 35 - - -
16/03:30pm -1.5 -11.1 -1.6 99 0.0 NNW 39 57 21 31 - - -
16/03:27pm -1.5 -11.5 -1.6 99 0.0 NNW 41 57 22 31 - - -
16/03:25pm -1.5 -11.5 -1.6 99 0.0 NNW 41 57 22 31 - - -
16/03:00pm -1.6 -12.2 -1.7 99 0.0 NW 44 63 24 34 - - -
16/02:30pm -1.6 -11.6 -1.7 99 0.0 NNW 41 59 22 32 - - -
16/02:27pm -1.6 -11.6 -1.7 99 0.0 NNW 41 59 22 32 - - -
16/02:00pm -1.6 -12.6 -1.7 99 0.0 NNW 46 59 25 32 - - -
16/01:35pm -1.5 -13.2 -1.6 99 0.0 NNW 50 70 27 38 - - -
16/01:30pm -1.5 -13.2 -1.6 99 0.0 NNW 50 63 27 34 - - -
16/01:00pm -1.3 -14.1 -1.4 99 0.0 N 56 78 30 42 - - -
16/12:41pm -1.3 -13.0 -1.4 99 0.0 N 50 72 27 39 - - -
16/12:30pm -1.2 -13.2 -1.3 99 0.0 N 52 67 28 36 - - -
16/12:03pm -1.4 -12.7 -1.5 99 0.0 N 48 67 26 36 - - -
16/12:00pm -1.4 -13.1 -1.5 99 0.0 N 50 63 27 34 - - -
16/11:30am -1.6 -12.9 -1.7 99 0.0 N 48 61 26 33 - - -
16/11:20am -1.6 -12.2 -1.7 99 0.0 N 44 63 24 34 - - -
16/11:00am -1.6 -12.6 -1.7 99 0.0 NNW 46 59 25 32 - - -
16/10:30am -1.6 -12.2 -1.7 99 0.0 NNW 44 67 24 36 - - -
16/10:02am -1.6 -13.3 -1.7 99 0.0 NNW 50 69 27 37 - - -
16/10:00am -1.6 -13.7 -1.7 99 0.0 NNW 52 69 28 37 - - -

Other formats

Comma delimited format used in spreadsheet applications
http://www.bom.gov.au/fwo/IDV60801/IDV60801.94906.axf

JavaScript Object Notation format (JSON) in row-major order
http://www.bom.gov.au/fwo/IDV60801/IDV60801.94906.json

Data quality

Most of these data are generated automatically and are frequently updated. Quality checks on data are not normally performed. It is possible for incorrect values to appear. Refer to information at About Latest Weather Observations and please check the disclaimer before using these data.